createdAt,value
2018-08-03T00:01:25.928Z,41.64
2018-08-03T00:03:52.565Z,41.60
2018-08-03T00:06:19.270Z,41.81
2018-08-03T00:08:45.903Z,41.78
2018-08-03T00:11:12.572Z,41.83
2018-08-03T00:13:39.216Z,41.86
2018-08-03T00:16:05.855Z,41.98
2018-08-03T00:18:32.535Z,42.03
2018-08-03T00:20:59.145Z,42.00
2018-08-03T00:23:25.770Z,41.98
2018-08-03T00:25:52.419Z,42.09
2018-08-03T00:28:22.346Z,42.19
2018-08-03T00:30:49.029Z,42.14
2018-08-03T00:33:15.680Z,42.20
2018-08-03T00:35:42.436Z,42.31
2018-08-03T00:38:12.072Z,42.25
2018-08-03T00:40:38.706Z,42.48
2018-08-03T00:43:05.362Z,42.33
2018-08-03T00:45:32.018Z,42.52
2018-08-03T00:47:58.699Z,42.57
2018-08-03T00:50:25.340Z,42.60
2018-08-03T00:52:51.975Z,42.72
2018-08-03T00:55:18.635Z,42.67
2018-08-03T00:57:45.272Z,42.78
2018-08-03T01:00:11.966Z,42.78
2018-08-03T01:02:38.598Z,42.77
2018-08-03T01:05:05.297Z,42.81
2018-08-03T01:07:31.929Z,42.92
2018-08-03T01:09:58.563Z,42.99
2018-08-03T01:12:25.202Z,42.96
2018-08-03T01:14:51.875Z,43.13
2018-08-03T01:17:18.543Z,43.10
2018-08-03T01:19:45.186Z,43.19
2018-08-03T01:22:11.793Z,43.17
2018-08-03T01:24:38.443Z,43.18
2018-08-03T01:27:05.076Z,43.30
2018-08-03T01:29:31.766Z,43.42
2018-08-03T01:31:58.459Z,43.37
2018-08-03T01:34:25.090Z,43.44
2018-08-03T01:36:51.718Z,43.61
2018-08-03T01:39:18.374Z,43.63
2018-08-03T01:41:45.015Z,43.54
2018-08-03T01:44:11.661Z,43.63
2018-08-03T01:46:38.334Z,43.71
2018-08-03T01:49:04.978Z,43.72
2018-08-03T01:51:31.608Z,43.87
2018-08-03T01:53:58.253Z,43.76
2018-08-03T01:56:24.984Z,43.90
2018-08-03T01:58:51.624Z,43.91
2018-08-03T02:01:18.324Z,43.79
2018-08-03T02:03:45.002Z,44.01
2018-08-03T02:06:11.643Z,44.00
2018-08-03T02:08:38.272Z,44.04
2018-08-03T02:11:04.915Z,44.13
2018-08-03T02:13:31.549Z,44.09
2018-08-03T02:16:00.479Z,44.17
2018-08-03T02:18:24.876Z,44.21
2018-08-03T02:20:51.513Z,44.20
2018-08-03T02:23:18.150Z,44.29
2018-08-03T02:25:44.813Z,44.44
2018-08-03T02:28:11.452Z,44.39
2018-08-03T02:30:38.091Z,44.45
2018-08-03T02:33:04.727Z,44.55
2018-08-03T02:35:31.369Z,44.52
2018-08-03T02:37:57.998Z,44.45
2018-08-03T02:40:24.691Z,44.55
2018-08-03T02:42:51.436Z,44.52
2018-08-03T02:45:18.122Z,44.55
2018-08-03T02:47:44.768Z,44.66
2018-08-03T02:50:11.396Z,44.68
2018-08-03T02:52:38.568Z,44.66
2018-08-03T02:55:05.203Z,44.88
2018-08-03T02:57:31.846Z,44.82
2018-08-03T02:59:58.557Z,44.82
2018-08-03T03:02:25.210Z,44.78
2018-08-03T03:04:51.843Z,45.02
2018-08-03T03:07:18.516Z,44.99
2018-08-03T03:09:45.132Z,44.93
2018-08-03T03:12:11.832Z,45.53
2018-08-03T03:14:38.517Z,46.11
2018-08-03T03:17:05.160Z,46.26
2018-08-03T03:19:31.847Z,46.94
2018-08-03T03:21:58.482Z,46.90
2018-08-03T03:24:25.130Z,46.96
2018-08-03T03:26:51.804Z,47.30
2018-08-03T03:29:18.486Z,47.51
2018-08-03T03:31:45.179Z,47.81
2018-08-03T03:34:11.827Z,48.16
2018-08-03T03:36:38.464Z,48.08
2018-08-03T03:39:05.116Z,48.54
2018-08-03T03:41:31.891Z,48.46
2018-08-03T03:43:58.525Z,48.74
2018-08-03T03:46:25.194Z,49.26
2018-08-03T03:48:51.886Z,48.99
2018-08-03T03:51:18.585Z,49.23
2018-08-03T03:53:45.222Z,49.20
2018-08-03T03:56:11.861Z,49.07
2018-08-03T03:58:38.499Z,49.13
2018-08-03T04:01:05.184Z,49.41
2018-08-03T04:03:31.782Z,49.49
2018-08-03T04:05:58.446Z,49.46
2018-08-03T04:08:25.078Z,49.12
2018-08-03T04:10:51.771Z,48.97
2018-08-03T04:13:18.359Z,49.19
2018-08-03T04:15:45.033Z,49.16
2018-08-03T04:18:11.672Z,49.19
2018-08-03T04:20:38.370Z,48.19
2018-08-03T04:23:05.012Z,48.04
2018-08-03T04:25:31.675Z,47.49
2018-08-03T04:27:58.300Z,47.36
2018-08-03T04:30:24.957Z,46.78
2018-08-03T04:32:51.595Z,47.01
2018-08-03T04:35:18.224Z,47.59
2018-08-03T04:37:44.874Z,46.38
2018-08-03T04:40:11.543Z,46.37
2018-08-03T04:42:38.237Z,45.92
2018-08-03T04:45:04.817Z,47.15
2018-08-03T04:47:31.466Z,48.14
2018-08-03T04:49:58.104Z,47.62
2018-08-03T04:52:24.838Z,48.68
2018-08-03T04:54:54.732Z,46.67
2018-08-03T04:57:22.315Z,46.01
2018-08-03T04:59:48.930Z,48.32
2018-08-03T05:02:15.564Z,45.47
2018-08-03T05:04:42.278Z,44.86
2018-08-03T05:07:08.901Z,46.93
2018-08-03T05:09:35.539Z,47.25
2018-08-03T05:12:02.266Z,47.10
2018-08-03T05:14:28.935Z,46.89
2018-08-03T05:16:55.644Z,47.33
2018-08-03T05:19:22.406Z,47.39
2018-08-03T05:21:49.098Z,45.87
2018-08-03T05:24:15.769Z,45.53
2018-08-03T05:26:42.397Z,44.91
2018-08-03T05:29:09.034Z,46.77
2018-08-03T05:31:35.664Z,47.06
2018-08-03T05:34:02.385Z,46.78
2018-08-03T05:36:29.032Z,46.61
2018-08-03T05:38:55.658Z,46.22
2018-08-03T05:41:22.329Z,46.83
2018-08-03T05:43:48.937Z,46.57
2018-08-03T05:46:15.574Z,46.55
2018-08-03T05:48:42.248Z,46.14
2018-08-03T05:51:08.875Z,46.48
2018-08-03T05:53:35.528Z,47.58
2018-08-03T05:56:02.212Z,47.96
2018-08-03T05:58:28.891Z,48.13
2018-08-03T06:00:55.499Z,48.12
2018-08-03T06:03:22.140Z,48.03
2018-08-03T06:05:48.775Z,48.51
2018-08-03T06:08:15.529Z,48.90
2018-08-03T06:10:42.068Z,48.52
2018-08-03T06:13:08.708Z,48.10
2018-08-03T06:15:35.351Z,48.26
2018-08-03T06:18:01.994Z,48.64
2018-08-03T06:20:28.670Z,48.28
2018-08-03T06:22:55.326Z,48.40
2018-08-03T06:25:21.965Z,48.34
2018-08-03T06:27:48.609Z,48.32
2018-08-03T06:30:15.416Z,47.56
2018-08-03T06:32:42.192Z,47.35
2018-08-03T06:35:08.885Z,47.29
2018-08-03T06:37:35.571Z,47.55
2018-08-03T06:40:02.205Z,47.80
2018-08-03T06:42:30.244Z,47.57
2018-08-03T06:44:55.556Z,47.51
2018-08-03T06:47:22.222Z,47.33
2018-08-03T06:49:48.885Z,47.01
2018-08-03T06:52:15.521Z,46.69
2018-08-03T06:54:42.156Z,46.40
2018-08-03T06:57:08.831Z,46.70
2018-08-03T06:59:35.476Z,46.97
2018-08-03T07:02:02.173Z,46.66
2018-08-03T07:04:28.848Z,46.63
2018-08-03T07:06:55.483Z,46.43
2018-08-03T07:09:23.324Z,46.26
2018-08-03T07:11:50.166Z,46.52
2018-08-03T07:14:16.815Z,46.44
2018-08-03T07:16:43.503Z,46.07
2018-08-03T07:19:10.194Z,45.97
2018-08-03T07:21:36.847Z,45.78
2018-08-03T07:24:03.483Z,45.71
2018-08-03T07:26:30.131Z,45.66
2018-08-03T07:28:56.782Z,46.00
2018-08-03T07:31:23.430Z,45.99
2018-08-03T07:33:50.073Z,45.93
2018-08-03T07:36:16.745Z,45.65
2018-08-03T07:38:43.395Z,45.97
2018-08-03T07:41:10.039Z,45.99
2018-08-03T07:43:36.773Z,45.98
2018-08-03T07:46:03.354Z,46.00
2018-08-03T07:48:29.999Z,46.13
2018-08-03T07:50:56.672Z,46.06
2018-08-03T07:53:23.311Z,46.27
2018-08-03T07:55:49.951Z,46.02
2018-08-03T07:58:16.627Z,46.29
2018-08-03T08:00:43.289Z,46.91
2018-08-03T08:03:10.035Z,45.54
2018-08-03T08:05:36.707Z,45.75
2018-08-03T08:08:03.357Z,46.14
2018-08-03T08:10:30.026Z,45.08
2018-08-03T08:12:56.718Z,44.42
2018-08-03T08:15:23.356Z,44.92
2018-08-03T08:17:50.095Z,44.37
2018-08-03T08:20:16.715Z,44.07
2018-08-03T08:22:43.343Z,43.88
2018-08-03T08:25:10.040Z,44.13
2018-08-03T08:27:36.759Z,43.98
2018-08-03T08:30:03.414Z,44.14
2018-08-03T08:32:30.065Z,43.82
2018-08-03T08:34:56.715Z,43.75
2018-08-03T08:37:23.377Z,43.42
2018-08-03T08:39:50.043Z,43.44
2018-08-03T08:42:16.675Z,43.06
2018-08-03T08:44:43.365Z,43.28
2018-08-03T08:47:10.099Z,42.89
2018-08-03T08:49:36.763Z,43.05
2018-08-03T08:52:03.461Z,43.88
2018-08-03T08:54:30.092Z,44.12
2018-08-03T08:56:56.872Z,44.60
2018-08-03T08:59:23.559Z,45.05
2018-08-03T09:01:50.273Z,43.41
2018-08-03T09:04:16.934Z,43.11
2018-08-03T09:06:43.573Z,43.12
2018-08-03T09:09:10.303Z,42.76
2018-08-03T09:11:36.912Z,42.74
2018-08-03T09:14:03.550Z,42.59
2018-08-03T09:16:31.394Z,42.51
2018-08-03T09:18:58.004Z,42.32
2018-08-03T09:21:24.697Z,42.10
2018-08-03T09:23:51.387Z,42.08
2018-08-03T09:26:17.995Z,42.18
2018-08-03T09:28:44.632Z,42.26
2018-08-03T09:31:11.271Z,42.34
2018-08-03T09:33:37.952Z,41.81
2018-08-03T09:36:04.627Z,42.10
2018-08-03T09:38:31.264Z,42.34
2018-08-03T09:40:57.966Z,42.07
2018-08-03T09:43:24.641Z,42.14
2018-08-03T09:45:51.289Z,41.84
2018-08-03T09:48:17.937Z,41.84
2018-08-03T09:50:44.571Z,41.39
2018-08-03T09:53:11.235Z,41.78
2018-08-03T09:55:38.022Z,42.11
2018-08-03T09:58:04.673Z,41.79
2018-08-03T10:00:31.383Z,41.64
2018-08-03T10:02:58.020Z,41.61
2018-08-03T10:05:24.655Z,41.73
2018-08-03T10:07:51.323Z,41.85
2018-08-03T10:10:17.947Z,41.80
2018-08-03T10:12:44.663Z,41.69
2018-08-03T10:15:11.291Z,41.88
2018-08-03T10:17:37.921Z,42.06
2018-08-03T10:20:04.737Z,42.31
2018-08-03T10:22:31.483Z,42.25
2018-08-03T10:24:58.065Z,42.15
2018-08-03T10:27:24.762Z,42.22
2018-08-03T10:29:51.402Z,42.65
2018-08-03T10:32:18.090Z,42.70
2018-08-03T10:34:44.765Z,42.81
2018-08-03T10:37:13.710Z,43.19
2018-08-03T10:39:40.371Z,43.53
2018-08-03T10:42:07.011Z,42.19
2018-08-03T10:44:33.750Z,42.02
2018-08-03T10:47:00.384Z,42.09
2018-08-03T10:49:27.000Z,42.42
2018-08-03T10:51:53.687Z,42.51
2018-08-03T10:54:20.324Z,42.51
2018-08-03T10:56:47.029Z,42.36
2018-08-03T10:59:13.671Z,42.50
2018-08-03T11:01:40.370Z,42.43
2018-08-03T11:04:07.038Z,42.34
2018-08-03T11:06:33.743Z,42.14
2018-08-03T11:09:00.440Z,42.29
2018-08-03T11:11:27.141Z,42.40
2018-08-03T11:13:53.864Z,41.90
2018-08-03T11:16:20.446Z,42.20
2018-08-03T11:18:47.148Z,41.65
2018-08-03T11:21:13.860Z,41.74
2018-08-03T11:23:40.497Z,41.79
2018-08-03T11:26:07.196Z,41.60
2018-08-03T11:28:33.834Z,41.01
2018-08-03T11:31:00.481Z,41.00
2018-08-03T11:33:27.177Z,40.38
2018-08-03T11:35:53.858Z,40.60
2018-08-03T11:38:20.461Z,41.01
2018-08-03T11:40:47.164Z,41.23
2018-08-03T11:43:14.857Z,41.18
2018-08-03T11:45:41.500Z,40.97
2018-08-03T11:48:08.205Z,40.79
2018-08-03T11:50:34.808Z,40.08
2018-08-03T11:53:01.527Z,39.79
2018-08-03T11:55:28.213Z,39.55
2018-08-03T11:57:54.856Z,40.48
2018-08-03T12:00:21.547Z,40.34
2018-08-03T12:02:48.233Z,40.73
2018-08-03T12:05:14.896Z,41.17
2018-08-03T12:07:42.642Z,39.34
2018-08-03T12:10:09.284Z,39.74
2018-08-03T12:12:36.054Z,39.27
2018-08-03T12:15:02.687Z,39.85
2018-08-03T12:17:29.396Z,40.21
2018-08-03T12:19:56.055Z,40.73
2018-08-03T12:22:22.699Z,40.46
2018-08-03T12:24:49.340Z,40.93
2018-08-03T12:27:15.976Z,40.24
2018-08-03T12:29:42.610Z,40.15
2018-08-03T12:32:09.326Z,39.54
2018-08-03T12:34:36.059Z,40.16
2018-08-03T12:37:02.773Z,40.28
2018-08-03T12:39:30.502Z,40.35
2018-08-03T12:41:57.142Z,41.49
2018-08-03T12:44:23.927Z,41.23
2018-08-03T12:46:50.621Z,40.18
2018-08-03T12:49:17.248Z,39.41
2018-08-03T12:51:43.945Z,40.15
2018-08-03T12:54:10.642Z,40.46
2018-08-03T12:56:37.358Z,40.40
2018-08-03T12:59:03.970Z,40.61
2018-08-03T13:01:30.605Z,40.91
2018-08-03T13:03:57.250Z,40.72
2018-08-03T13:06:23.888Z,40.88
2018-08-03T13:08:50.566Z,39.58
2018-08-03T13:11:17.199Z,39.62
2018-08-03T13:13:43.868Z,40.39
2018-08-03T13:16:10.523Z,40.80
2018-08-03T13:18:37.180Z,41.30
2018-08-03T13:21:04.207Z,40.90
2018-08-03T13:23:30.894Z,39.51
2018-08-03T13:25:57.697Z,39.66
2018-08-03T13:28:24.356Z,39.55
2018-08-03T13:30:50.998Z,39.78
2018-08-03T13:33:18.158Z,40.19
2018-08-03T13:35:44.757Z,40.00
2018-08-03T13:38:11.395Z,39.10
2018-08-03T13:40:38.078Z,40.10
2018-08-03T13:43:04.765Z,40.69
2018-08-03T13:45:31.370Z,40.48
2018-08-03T13:47:58.081Z,39.65
2018-08-03T13:50:24.898Z,39.34
2018-08-03T13:52:51.522Z,39.09
2018-08-03T13:55:18.160Z,39.71
2018-08-03T13:57:44.850Z,40.21
2018-08-03T14:00:11.543Z,40.09
2018-08-03T14:02:38.180Z,39.74
2018-08-03T14:05:04.931Z,39.04
2018-08-03T14:07:31.788Z,38.91
2018-08-03T14:09:58.436Z,38.89
2018-08-03T14:12:25.173Z,39.10
2018-08-03T14:14:51.837Z,39.62
2018-08-03T14:17:18.533Z,39.73
2018-08-03T14:19:45.251Z,39.08
2018-08-03T14:22:12.168Z,38.94
2018-08-03T14:24:38.776Z,38.30
2018-08-03T14:27:05.415Z,38.29
2018-08-03T14:29:32.107Z,38.76
2018-08-03T14:32:01.577Z,39.26
2018-08-03T14:34:28.272Z,39.66
2018-08-03T14:36:54.896Z,38.61
2018-08-03T14:39:21.551Z,38.24
2018-08-03T14:41:48.195Z,38.04
2018-08-03T14:44:14.869Z,37.85
2018-08-03T14:46:41.562Z,37.81
2018-08-03T14:49:08.186Z,37.58
2018-08-03T14:51:34.833Z,37.13
2018-08-03T14:54:01.519Z,37.41
2018-08-03T14:56:28.120Z,37.07
2018-08-03T14:58:54.774Z,37.01
2018-08-03T15:01:21.431Z,37.02
2018-08-03T15:03:48.078Z,36.71
2018-08-03T15:06:16.140Z,36.90
2018-08-03T15:08:41.422Z,36.42
2018-08-03T15:11:08.071Z,36.20
2018-08-03T15:13:34.726Z,36.33
2018-08-03T15:16:01.370Z,36.55
2018-08-03T15:18:27.996Z,36.04
2018-08-03T15:20:54.638Z,36.20
2018-08-03T15:23:21.278Z,35.91
2018-08-03T15:25:48.023Z,35.84
2018-08-03T15:28:14.655Z,36.02
2018-08-03T15:30:41.306Z,36.06
2018-08-03T15:33:07.927Z,35.87
2018-08-03T15:35:34.574Z,35.41
2018-08-03T15:38:01.215Z,35.55
2018-08-03T15:40:27.975Z,35.59
2018-08-03T15:42:54.616Z,35.48
2018-08-03T15:45:21.255Z,35.29
2018-08-03T15:47:47.897Z,35.13
2018-08-03T15:50:14.545Z,35.41
2018-08-03T15:52:41.250Z,35.04
2018-08-03T15:55:07.825Z,34.87
2018-08-03T15:57:34.458Z,34.80
2018-08-03T16:00:01.134Z,34.63
2018-08-03T16:02:27.754Z,34.89
2018-08-03T16:04:54.380Z,34.55
2018-08-03T16:07:21.041Z,34.50
2018-08-03T16:09:47.863Z,34.47
2018-08-03T16:12:14.467Z,34.57
2018-08-03T16:14:41.104Z,34.46
2018-08-03T16:17:07.744Z,34.29
2018-08-03T16:19:34.378Z,34.21
2018-08-03T16:22:01.084Z,34.40
2018-08-03T16:24:27.755Z,34.14
2018-08-03T16:26:54.364Z,34.07
2018-08-03T16:29:21.008Z,33.95
2018-08-03T16:31:47.669Z,33.89
2018-08-03T16:34:14.305Z,34.03
2018-08-03T16:36:40.956Z,33.97
2018-08-03T16:39:10.683Z,33.78
2018-08-03T16:41:37.372Z,33.82
2018-08-03T16:44:04.014Z,33.62
2018-08-03T16:46:30.617Z,33.54
2018-08-03T16:48:57.270Z,33.49
2018-08-03T16:51:23.921Z,33.37
2018-08-03T16:53:50.552Z,33.49
2018-08-03T16:56:17.192Z,33.56
2018-08-03T16:58:43.825Z,33.41
2018-08-03T17:01:10.460Z,33.23
2018-08-03T17:03:37.106Z,33.13
2018-08-03T17:06:03.745Z,33.09
2018-08-03T17:08:30.389Z,33.06
2018-08-03T17:10:57.030Z,33.01
2018-08-03T17:13:23.696Z,32.93
2018-08-03T17:15:50.318Z,32.97
2018-08-03T17:18:16.954Z,32.82
2018-08-03T17:20:43.595Z,33.13
2018-08-03T17:23:10.229Z,32.72
2018-08-03T17:25:36.869Z,32.68
2018-08-03T17:28:03.521Z,32.69
2018-08-03T17:30:30.147Z,32.66
2018-08-03T17:32:56.792Z,32.82
2018-08-03T17:35:23.435Z,32.76
2018-08-03T17:37:50.075Z,32.53
2018-08-03T17:40:16.718Z,32.75
2018-08-03T17:42:43.388Z,32.55
2018-08-03T17:45:09.989Z,32.41
2018-08-03T17:47:37.332Z,32.46
2018-08-03T17:50:04.006Z,32.41
2018-08-03T17:52:30.662Z,32.33
2018-08-03T17:54:57.330Z,32.34
2018-08-03T17:57:23.932Z,32.16
2018-08-03T17:59:50.611Z,32.22
2018-08-03T18:02:17.250Z,32.16
2018-08-03T18:04:43.886Z,32.07
2018-08-03T18:07:10.523Z,32.05
2018-08-03T18:09:37.160Z,32.02
2018-08-03T18:12:03.797Z,31.97
2018-08-03T18:14:30.469Z,32.00
2018-08-03T18:16:57.071Z,32.85
2018-08-03T18:19:23.712Z,34.36
2018-08-03T18:21:50.390Z,34.42
2018-08-03T18:24:16.997Z,34.48
2018-08-03T18:26:43.633Z,34.33
2018-08-03T18:29:10.342Z,34.07
2018-08-03T18:31:36.910Z,34.04
2018-08-03T18:34:03.547Z,33.93
2018-08-03T18:36:30.188Z,33.75
2018-08-03T18:38:56.872Z,33.98
2018-08-03T18:41:23.462Z,33.72
2018-08-03T18:43:50.146Z,33.60
2018-08-03T18:46:16.818Z,33.50
2018-08-03T18:48:43.419Z,33.36
2018-08-03T18:51:10.047Z,33.23
2018-08-03T18:53:36.726Z,33.15
2018-08-03T18:56:03.377Z,33.13
2018-08-03T18:58:30.067Z,32.99
2018-08-03T19:00:56.702Z,32.88
2018-08-03T19:03:23.339Z,32.86
2018-08-03T19:05:49.978Z,32.79
2018-08-03T19:08:16.623Z,32.68
2018-08-03T19:10:43.260Z,32.68
2018-08-03T19:13:09.911Z,32.54
2018-08-03T19:15:36.604Z,32.46
2018-08-03T19:18:03.185Z,32.48
2018-08-03T19:20:29.822Z,32.70
2018-08-03T19:22:56.471Z,34.11
2018-08-03T19:25:23.097Z,34.47
2018-08-03T19:27:49.734Z,34.67
2018-08-03T19:30:16.384Z,34.85
2018-08-03T19:32:43.020Z,34.33
2018-08-03T19:35:09.689Z,34.38
2018-08-03T19:37:36.327Z,34.35
2018-08-03T19:40:02.978Z,34.26
2018-08-03T19:42:29.613Z,34.20
2018-08-03T19:44:56.260Z,34.01
2018-08-03T19:47:22.943Z,33.96
2018-08-03T19:49:49.595Z,33.81
2018-08-03T19:52:16.246Z,33.70
2018-08-03T19:54:42.889Z,33.52
2018-08-03T19:57:09.535Z,33.42
2018-08-03T19:59:36.180Z,33.32
2018-08-03T20:02:02.815Z,33.23
2018-08-03T20:04:29.511Z,33.19
2018-08-03T20:06:56.158Z,33.04
2018-08-03T20:09:22.793Z,33.06
2018-08-03T20:11:49.436Z,32.97
2018-08-03T20:14:16.070Z,34.10
2018-08-03T20:16:42.737Z,35.02
2018-08-03T20:19:09.418Z,35.06
2018-08-03T20:21:36.058Z,35.11
2018-08-03T20:24:02.743Z,35.47
2018-08-03T20:26:29.393Z,34.60
2018-08-03T20:28:56.023Z,34.83
2018-08-03T20:31:22.699Z,34.74
2018-08-03T20:33:49.339Z,34.61
2018-08-03T20:36:15.993Z,34.45
2018-08-03T20:38:42.681Z,34.31
2018-08-03T20:41:09.321Z,34.17
2018-08-03T20:43:36.030Z,34.07
2018-08-03T20:46:02.681Z,33.96
2018-08-03T20:48:30.662Z,33.77
2018-08-03T20:50:55.973Z,33.75
2018-08-03T20:53:22.630Z,33.67
2018-08-03T20:55:49.288Z,33.65
2018-08-03T20:58:15.980Z,34.25
2018-08-03T21:00:42.592Z,35.32
2018-08-03T21:03:09.249Z,35.82
2018-08-03T21:05:35.910Z,35.89
2018-08-03T21:08:02.782Z,35.94
2018-08-03T21:10:29.433Z,36.22
2018-08-03T21:12:56.086Z,36.37
2018-08-03T21:15:22.755Z,36.36
2018-08-03T21:17:49.413Z,36.41
2018-08-03T21:20:16.133Z,36.45
2018-08-03T21:22:42.773Z,36.56
2018-08-03T21:25:09.427Z,36.46
2018-08-03T21:27:36.090Z,36.61
2018-08-03T21:30:02.798Z,36.63
2018-08-03T21:32:29.414Z,36.73
2018-08-03T21:34:56.053Z,36.79
2018-08-03T21:37:22.715Z,36.80
2018-08-03T21:39:49.389Z,36.96
2018-08-03T21:42:16.084Z,37.13
2018-08-03T21:44:42.742Z,37.20
2018-08-03T21:47:09.419Z,37.18
2018-08-03T21:49:36.078Z,37.26
2018-08-03T21:52:02.770Z,37.45
2018-08-03T21:54:29.510Z,37.64
2018-08-03T21:56:56.148Z,37.59
2018-08-03T21:59:22.842Z,37.73
2018-08-03T22:01:49.499Z,37.77
2018-08-03T22:04:16.197Z,37.89
2018-08-03T22:06:42.862Z,37.89
2018-08-03T22:09:09.557Z,38.01
2018-08-03T22:11:36.213Z,37.99
2018-08-03T22:14:02.903Z,38.15
2018-08-03T22:16:29.555Z,38.21
2018-08-03T22:18:56.245Z,38.27
2018-08-03T22:21:22.852Z,38.24
2018-08-03T22:23:49.496Z,38.44
2018-08-03T22:26:16.175Z,38.52
2018-08-03T22:28:42.823Z,38.55
2018-08-03T22:31:09.474Z,38.70
2018-08-03T22:33:36.135Z,38.64
2018-08-03T22:36:02.792Z,38.81
2018-08-03T22:38:29.451Z,38.84
2018-08-03T22:40:56.094Z,38.84
2018-08-03T22:43:22.746Z,38.89
2018-08-03T22:45:49.455Z,38.91
2018-08-03T22:48:16.109Z,38.94
2018-08-03T22:50:42.772Z,38.98
2018-08-03T22:53:09.437Z,39.02
2018-08-03T22:55:36.095Z,39.08
2018-08-03T22:58:02.826Z,38.91
2018-08-03T23:00:29.490Z,39.16
2018-08-03T23:02:56.181Z,39.26
2018-08-03T23:05:22.796Z,39.22
2018-08-03T23:07:49.538Z,39.23
2018-08-03T23:10:16.169Z,39.35
2018-08-03T23:12:42.813Z,39.37
2018-08-03T23:15:09.476Z,39.42
2018-08-03T23:17:36.124Z,39.46
2018-08-03T23:20:02.780Z,39.54
2018-08-03T23:22:29.435Z,39.57
2018-08-03T23:24:56.149Z,39.65
2018-08-03T23:27:22.838Z,39.67
2018-08-03T23:29:49.553Z,39.73
2018-08-03T23:32:16.213Z,39.82
2018-08-03T23:34:42.862Z,39.86
2018-08-03T23:37:09.527Z,39.89
2018-08-03T23:39:37.234Z,39.88
2018-08-03T23:42:03.948Z,40.03
2018-08-03T23:44:30.704Z,39.92
2018-08-03T23:46:57.412Z,39.99
2018-08-03T23:49:24.113Z,40.11
2018-08-03T23:51:50.823Z,40.17
2018-08-03T23:54:17.488Z,40.21
2018-08-03T23:56:44.170Z,40.22
2018-08-03T23:59:10.789Z,40.29
